Rocksprings, Texas
Current Conditions -  °F | °C
As of 12:10 PM on Thursday 29 Jan 2015 (Local Time) from KECU Reporting Station
Clear Clear  
Wind Chill: 68°   Ceiling: Unl
Heat Index: 68°   Visibility: 10mi
Dew Point: 46°   Wind: 9mph
Humidity: 46%   Direction: 30°NNE
Pressure: 30.28"   Gusts: NA
Location:  30.02°N, 100.21°W
Report Text: KECU 291810Z AUTO 03008KT 10SM CLR 20/08 A3028 RMK AO2
Loading
Personal Weather Stations






























Interactive Weather Map New forecast layout! Learn more

10-Day Weather Forecast

Advertisements
Track Severe Weather on mobile